Flight Track Log - Related Links

Times and Time Zones

All times are in EDT time to prevent confusion due to time zone crossing. See the UAL4108 flight status page for this flight to view local times or setup timezone preferences in your user account.

Time Position Orientation Groundspeed Altitude Reporting Facility
EDT Latitude Longitude Course Direction KTS MPH feet Rate Location/Type
Fri 08:45:04 PM 34.7178 -92.2469 202° Southwest 168 193 800  Level Memphis Center
Fri 08:45:41 PM 34.6925 -92.2542 193° South 183 211 2,200 2,412 Climbing Memphis Center
Fri 08:46:41 PM 34.6281 -92.2500 177° South 247 284 4,700 2,538 Climbing Memphis Center
Fri 08:48:17 PM 34.5008 -92.2447 178° South 286 329 8,800 2,654 Climbing Memphis Center
Fri 08:49:00 PM 34.3381 -92.4968 193° South  Level Estimated
Fri 08:49:17 PM 34.4133 -92.2378 176° South 297 342 11,600  Level Memphis Center
Fri 08:50:00 PM 34.2597 -92.5509 202° Southwest  Level Estimated
Fri 08:50:17 PM 34.3211 -92.2483 185° South 321 369 13,300  Level Memphis Center
Fri 08:51:17 PM 34.2186 -92.2686 189° South 353 406 15,000 1,800 Climbing Memphis Center
Fri 08:52:17 PM 34.1142 -92.2864 188° South 371 427 16,900 1,850 Climbing Memphis Center
Fri 08:53:17 PM 34.0094 -92.3092 190° South 378 435 18,700 1,850 Climbing Memphis Center
Fri 08:54:17 PM 33.9089 -92.3294 190° South 378 435 20,600 1,650 Climbing Memphis Center
Fri 08:55:17 PM 33.7981 -92.3469 187° South 383 441 22,000 700 Climbing Memphis Center
Fri 08:56:17 PM 33.6850 -92.3694 189° South 406 467 22,000  Level Memphis Center
Fri 08:57:27 PM 33.5594 -92.3908 188° South 407 468 22,000  Level Fort Worth Center
Fri 08:58:27 PM 33.4372 -92.4103 188° South 428 493 22,000  Level Fort Worth Center
Fri 08:59:27 PM 33.3172 -92.4369 191° South 434 499 22,000  Level Fort Worth Center
Fri 09:00:27 PM 33.1989 -92.4536 187° South 440 506 22,000  Level Fort Worth Center
Fri 09:01:27 PM 33.0808 -92.4775 190° South 440 506 22,000  Level Fort Worth Center
Fri 09:02:27 PM 32.9669 -92.4986 189° South 433 498 22,000  Level Fort Worth Center
Fri 09:03:27 PM 32.8467 -92.5178 188° South 433 498 22,000  Level Fort Worth Center
Fri 09:04:27 PM 32.7328 -92.5386 189° South 423 487 22,000  Level Fort Worth Center
Fri 09:05:27 PM 32.6186 -92.5597 189° South 423 487 22,000  Level Fort Worth Center
Fri 09:07:14 PM 32.4103 -92.5989 189° South 412 474 22,000  Level Houston Center
Fri 09:08:16 PM 32.2964 -92.6183 188° South 412 474 22,000  Level Houston Center
Fri 09:09:18 PM 32.1814 -92.6397 189° South 415 478 22,000  Level Houston Center
Fri 09:10:19 PM 32.0472 -92.6628 188° South 407 468 22,000  Level Houston Center
Fri 09:11:21 PM 31.9444 -92.7078 200° South 396 456 22,000  Level Houston Center
Fri 09:12:22 PM 31.8619 -92.7844 218° Southwest 378 435 22,000  Level Houston Center
Fri 09:13:24 PM 31.7814 -92.8628 220° Southwest 377 434 22,000  Level Houston Center
Fri 09:14:25 PM 31.7006 -92.9408 219° Southwest 376 433 22,000  Level Houston Center
Fri 09:15:27 PM 31.6206 -93.0183 220° Southwest 377 434 22,000  Level Houston Center
Fri 09:16:28 PM 31.5397 -93.0958 219° Southwest 376 433 22,000  Level Houston Center
Fri 09:17:30 PM 31.4414 -93.1911 220° Southwest 383 441 22,000  Level Houston Center
Fri 09:18:31 PM 31.3606 -93.2689 219° Southwest 380 437 22,000  Level Houston Center
Fri 09:19:32 PM 31.2781 -93.3478 219° Southwest 382 440 22,000  Level Houston Center
Fri 09:20:34 PM 31.1906 -93.4289 218° Southwest 382 440 22,000  Level Houston Center
Fri 09:21:35 PM 31.1097 -93.5075 220° Southwest 381 438 22,000  Level Houston Center
Fri 09:22:37 PM 31.0269 -93.5839 218° Southwest 381 438 22,000  Level Houston Center
Fri 09:23:38 PM 30.9464 -93.6619 220° Southwest 378 435 22,000  Level Houston Center
Fri 09:24:40 PM 30.8647 -93.7378 219° Southwest 377 434 22,000  Level Houston Center
Fri 09:25:41 PM 30.7839 -93.8147 219° Southwest 378 435 22,000 -689 Level Houston Center
Fri 09:26:42 PM 30.7031 -93.8922 220° Southwest 379 436 20,600 -1,707 Descending Houston Center
Fri 09:27:44 PM 30.6058 -93.9831 219° Southwest 377 434 18,500 -1,756 Descending Houston Center
Fri 09:28:45 PM 30.5269 -94.0564 219° Southwest 368 423 17,000 -1,560 Descending Houston Center
Fri 09:29:24 PM 30.4750 -94.1047 219° Southwest 359 413 15,900 -1,672 Descending Houston Center
Fri 09:29:46 PM 30.4500 -94.1289 220° Southwest 361 415 15,300 -1,814 Descending Houston Center
Fri 09:30:07 PM 30.4192 -94.1561 217° Southwest 354 407 14,600 -1,645 Descending Houston Center
Fri 09:30:48 PM 30.3739 -94.1986 219° Southwest 355 409 13,600 -1,672 Descending Houston Center
Fri 09:31:08 PM 30.3406 -94.2294 219° Southwest 346 398 12,900 -1,574 Descending Houston Center
Fri 09:31:49 PM 30.3011 -94.2658 219° Southwest 343 395 12,000 -885 Descending Houston Center
Fri 09:32:09 PM 30.2672 -94.2972 219° Southwest 326 375 12,000  Level Houston Center
Fri 09:32:50 PM 30.2314 -94.3314 219° Southwest 331 381 12,000  Level Houston Center
Fri 09:33:10 PM 30.2028 -94.3664 227° Southwest 321 369 12,000 -387 Level Houston Center
Fri 09:33:52 PM 30.1831 -94.4114 243° Southwest 308 354 11,600 -984 Descending Houston Center
Fri 09:34:11 PM 30.1656 -94.4583 247° West 304 350 11,000 -1,279 Descending Houston Center
Fri 09:34:53 PM 30.1467 -94.5053 245° Southwest 301 346 10,300 -1,475 Descending Houston Center
Fri 09:35:12 PM 30.1317 -94.5425 245° Southwest 269 310 9,500 -1,770 Descending Houston Center
Fri 09:35:54 PM 30.1172 -94.5869 249° West 283 326 8,500 -1,377 Descending Houston Center
Fri 09:36:13 PM 30.1017 -94.6236 244° Southwest 272 313 8,100 -492 Descending Houston Center
Fri 09:36:55 PM 30.0886 -94.6678 251° West 275 316 8,000 -98 Descending Houston Center
Fri 09:37:14 PM 30.0786 -94.7111 255° West 279 321 8,000  Level Houston Center
Fri 09:38:09 PM 30.0633 -94.7903 257° West 279 321 8,000 -288 Level Houston Center
Fri 09:38:58 PM 30.0517 -94.8514 258° West 258 297 7,500 -927 Descending Houston Center
Fri 09:39:59 PM 30.0369 -94.9242 257° West 237 273 6,300 -1,180 Descending Houston Center
Fri 09:41:00 PM 30.0231 -94.9953 257° West 230 265 5,100 -1,308 Descending Houston Center
Fri 09:41:17 PM 30.0158 -95.0208 252° West 229 264 4,600 -1,065 Descending Houston Center
Fri 09:42:02 PM 30.0081 -95.0658 259° West 228 262 4,000 -689 Descending Houston Center
Fri 09:42:18 PM 30.0014 -95.0903 253° West 218 251 3,900 -393 Descending Houston Center
Fri 09:43:03 PM 29.9958 -95.1247 259° West 194 223 3,600 -679 Descending Houston Center
Fri 09:44:04 PM 29.9933 -95.1761 267° West 164 189 2,700 -1,013 Descending Houston Center
Fri 09:44:20 PM 29.9922 -95.1975 267° West 168 193 2,300 -1,500 Descending Houston Center

Login

Don't have an account? Register now (free) for customized features, flight alerts, and more!